sensor_id;sensor_type;location;lat;lon;timestamp;pressure;altitude;pressure_sealevel;temperature;humidity
79374;BME280;68844;53.128;17.958;2023-11-21T00:01:03;100515.45;;;0.49;95.03
79374;BME280;68844;53.128;17.958;2023-11-21T00:03:38;100515.31;;;0.47;95.14
79374;BME280;68844;53.128;17.958;2023-11-21T00:06:05;100519.04;;;0.43;95.46
79374;BME280;68844;53.128;17.958;2023-11-21T00:08:36;100523.20;;;0.43;95.48
79374;BME280;68844;53.128;17.958;2023-11-21T00:11:03;100522.30;;;0.44;95.49
79374;BME280;68844;53.128;17.958;2023-11-21T00:13:32;100527.67;;;0.45;95.61
79374;BME280;68844;53.128;17.958;2023-11-21T00:15:58;100529.08;;;0.44;95.76
79374;BME280;68844;53.128;17.958;2023-11-21T00:18:25;100531.11;;;0.46;95.60
79374;BME280;68844;53.128;17.958;2023-11-21T00:20:52;100536.79;;;0.47;95.62
79374;BME280;68844;53.128;17.958;2023-11-21T00:23:18;100539.56;;;0.48;95.58
79374;BME280;68844;53.128;17.958;2023-11-21T00:25:45;100540.17;;;0.42;95.67
79374;BME280;68844;53.128;17.958;2023-11-21T00:28:12;100539.54;;;0.39;95.90
79374;BME280;68844;53.128;17.958;2023-11-21T00:30:38;100539.49;;;0.42;95.74
79374;BME280;68844;53.128;17.958;2023-11-21T00:33:05;100534.36;;;0.39;95.72
79374;BME280;68844;53.128;17.958;2023-11-21T00:35:32;100542.18;;;0.38;95.83
79374;BME280;68844;53.128;17.958;2023-11-21T00:37:58;100539.30;;;0.33;96.02
79374;BME280;68844;53.128;17.958;2023-11-21T00:40:25;100547.23;;;0.36;95.99
79374;BME280;68844;53.128;17.958;2023-11-21T00:42:52;100550.33;;;0.37;96.10
79374;BME280;68844;53.128;17.958;2023-11-21T00:45:19;100550.70;;;0.36;96.03
79374;BME280;68844;53.128;17.958;2023-11-21T00:47:49;100562.85;;;0.33;96.12
79374;BME280;68844;53.128;17.958;2023-11-21T00:50:15;100564.92;;;0.34;95.93
79374;BME280;68844;53.128;17.958;2023-11-21T00:52:42;100569.55;;;0.37;96.34
79374;BME280;68844;53.128;17.958;2023-11-21T00:55:09;100568.14;;;0.38;96.12
79374;BME280;68844;53.128;17.958;2023-11-21T00:57:36;100571.79;;;0.28;96.13
79374;BME280;68844;53.128;17.958;2023-11-21T01:00:04;100574.52;;;0.31;96.21
79374;BME280;68844;53.128;17.958;2023-11-21T01:02:40;100572.55;;;0.25;95.91
79374;BME280;68844;53.128;17.958;2023-11-21T01:05:07;100570.33;;;0.23;95.60
79374;BME280;68844;53.128;17.958;2023-11-21T01:07:34;100573.52;;;0.19;95.71
79374;BME280;68844;53.128;17.958;2023-11-21T01:10:01;100578.40;;;0.16;95.96
79374;BME280;68844;53.128;17.958;2023-11-21T01:12:27;100582.60;;;0.14;95.91
79374;BME280;68844;53.128;17.958;2023-11-21T01:14:55;100589.46;;;0.17;95.81
79374;BME280;68844;53.128;17.958;2023-11-21T01:17:22;100590.80;;;0.12;95.77
79374;BME280;68844;53.128;17.958;2023-11-21T01:19:49;100593.67;;;0.14;95.55
79374;BME280;68844;53.128;17.958;2023-11-21T01:22:15;100592.80;;;0.15;95.60
79374;BME280;68844;53.128;17.958;2023-11-21T01:24:43;100596.86;;;0.11;95.62
79374;BME280;68844;53.128;17.958;2023-11-21T01:27:11;100598.46;;;0.08;95.55
79374;BME280;68844;53.128;17.958;2023-11-21T01:29:38;100599.33;;;0.08;95.41
79374;BME280;68844;53.128;17.958;2023-11-21T01:32:05;100604.84;;;0.09;95.42
79374;BME280;68844;53.128;17.958;2023-11-21T01:34:33;100601.98;;;0.06;95.49
79374;BME280;68844;53.128;17.958;2023-11-21T01:37:00;100607.67;;;0.06;94.83
79374;BME280;68844;53.128;17.958;2023-11-21T01:39:32;100603.54;;;0.05;95.05
79374;BME280;68844;53.128;17.958;2023-11-21T01:42:00;100600.40;;;0.06;95.32
79374;BME280;68844;53.128;17.958;2023-11-21T01:44:26;100599.73;;;0.05;95.28
79374;BME280;68844;53.128;17.958;2023-11-21T01:46:53;100604.42;;;0.05;95.21
79374;BME280;68844;53.128;17.958;2023-11-21T01:49:20;100609.88;;;0.08;95.25
79374;BME280;68844;53.128;17.958;2023-11-21T01:51:49;100615.61;;;0.07;95.55
79374;BME280;68844;53.128;17.958;2023-11-21T01:54:18;100617.45;;;0.01;95.61
79374;BME280;68844;53.128;17.958;2023-11-21T01:56:45;100620.08;;;-0.02;95.46
79374;BME280;68844;53.128;17.958;2023-11-21T01:59:17;100619.01;;;0.00;95.52
79374;BME280;68844;53.128;17.958;2023-11-21T02:01:44;100621.64;;;-0.02;95.44
79374;BME280;68844;53.128;17.958;2023-11-21T02:04:13;100619.15;;;-0.09;95.52
79374;BME280;68844;53.128;17.958;2023-11-21T02:06:40;100624.13;;;-0.06;95.40
79374;BME280;68844;53.128;17.958;2023-11-21T02:09:07;100621.42;;;-0.10;95.15
79374;BME280;68844;53.128;17.958;2023-11-21T02:11:35;100625.61;;;-0.12;95.03
79374;BME280;68844;53.128;17.958;2023-11-21T02:14:02;100626.89;;;-0.18;95.17
79374;BME280;68844;53.128;17.958;2023-11-21T02:16:29;100630.42;;;-0.20;95.25
79374;BME280;68844;53.128;17.958;2023-11-21T02:18:57;100629.95;;;-0.13;95.05
79374;BME280;68844;53.128;17.958;2023-11-21T02:21:26;100625.70;;;-0.17;94.54
79374;BME280;68844;53.128;17.958;2023-11-21T02:23:52;100629.32;;;-0.17;94.75
79374;BME280;68844;53.128;17.958;2023-11-21T02:26:19;100629.19;;;-0.21;94.99
79374;BME280;68844;53.128;17.958;2023-11-21T02:28:46;100631.59;;;-0.30;94.72
79374;BME280;68844;53.128;17.958;2023-11-21T02:31:14;100630.36;;;-0.28;94.83
79374;BME280;68844;53.128;17.958;2023-11-21T02:33:41;100633.81;;;-0.28;94.84
79374;BME280;68844;53.128;17.958;2023-11-21T02:36:08;100636.15;;;-0.34;94.76
79374;BME280;68844;53.128;17.958;2023-11-21T02:38:35;100639.21;;;-0.31;94.70
79374;BME280;68844;53.128;17.958;2023-11-21T02:41:01;100642.83;;;-0.29;94.84
79374;BME280;68844;53.128;17.958;2023-11-21T02:43:28;100642.86;;;-0.32;94.99
79374;BME280;68844;53.128;17.958;2023-11-21T02:45:57;100641.98;;;-0.31;95.31
79374;BME280;68844;53.128;17.958;2023-11-21T02:48:23;100645.26;;;-0.30;95.11
79374;BME280;68844;53.128;17.958;2023-11-21T02:50:52;100645.55;;;-0.27;94.98
79374;BME280;68844;53.128;17.958;2023-11-21T02:53:19;100649.98;;;-0.34;94.88
79374;BME280;68844;53.128;17.958;2023-11-21T02:55:47;100655.02;;;-0.35;94.78
79374;BME280;68844;53.128;17.958;2023-11-21T02:58:14;100659.88;;;-0.36;94.68
79374;BME280;68844;53.128;17.958;2023-11-21T03:00:41;100663.40;;;-0.39;94.46
79374;BME280;68844;53.128;17.958;2023-11-21T03:03:08;100664.98;;;-0.44;94.74
79374;BME280;68844;53.128;17.958;2023-11-21T03:05:34;100665.64;;;-0.40;94.30
79374;BME280;68844;53.128;17.958;2023-11-21T03:08:03;100668.41;;;-0.40;94.09
79374;BME280;68844;53.128;17.958;2023-11-21T03:10:30;100674.73;;;-0.46;93.96
79374;BME280;68844;53.128;17.958;2023-11-21T03:12:56;100677.85;;;-0.47;93.79
79374;BME280;68844;53.128;17.958;2023-11-21T03:15:24;100676.05;;;-0.42;93.60
79374;BME280;68844;53.128;17.958;2023-11-21T03:17:50;100681.25;;;-0.43;93.49
79374;BME280;68844;53.128;17.958;2023-11-21T03:20:17;100684.37;;;-0.44;93.20
79374;BME280;68844;53.128;17.958;2023-11-21T03:22:44;100682.83;;;-0.45;93.05
79374;BME280;68844;53.128;17.958;2023-11-21T03:25:11;100685.58;;;-0.43;93.46
79374;BME280;68844;53.128;17.958;2023-11-21T03:27:37;100687.35;;;-0.46;93.34
79374;BME280;68844;53.128;17.958;2023-11-21T03:30:07;100691.82;;;-0.45;93.22
79374;BME280;68844;53.128;17.958;2023-11-21T03:32:35;100692.67;;;-0.45;93.10
79374;BME280;68844;53.128;17.958;2023-11-21T03:35:02;100695.09;;;-0.43;92.96
79374;BME280;68844;53.128;17.958;2023-11-21T03:37:30;100697.74;;;-0.47;92.30
79374;BME280;68844;53.128;17.958;2023-11-21T03:39:56;100697.93;;;-0.50;92.17
79374;BME280;68844;53.128;17.958;2023-11-21T03:42:23;100698.99;;;-0.51;92.52
79374;BME280;68844;53.128;17.958;2023-11-21T03:44:52;100700.35;;;-0.50;93.02
79374;BME280;68844;53.128;17.958;2023-11-21T03:47:19;100702.62;;;-0.51;93.06
79374;BME280;68844;53.128;17.958;2023-11-21T03:49:46;100697.45;;;-0.52;93.05
79374;BME280;68844;53.128;17.958;2023-11-21T03:52:14;100693.94;;;-0.47;92.87
79374;BME280;68844;53.128;17.958;2023-11-21T03:54:41;100693.56;;;-0.45;93.13
79374;BME280;68844;53.128;17.958;2023-11-21T03:57:09;100694.63;;;-0.47;93.00
79374;BME280;68844;53.128;17.958;2023-11-21T03:59:40;100694.94;;;-0.45;93.12
79374;BME280;68844;53.128;17.958;2023-11-21T04:02:07;100696.07;;;-0.39;93.24
79374;BME280;68844;53.128;17.958;2023-11-21T04:04:35;100698.01;;;-0.41;93.34
79374;BME280;68844;53.128;17.958;2023-11-21T04:07:03;100702.20;;;-0.45;92.71
79374;BME280;68844;53.128;17.958;2023-11-21T04:09:30;100700.00;;;-0.48;91.98
79374;BME280;68844;53.128;17.958;2023-11-21T04:11:57;100703.45;;;-0.48;91.61
79374;BME280;68844;53.128;17.958;2023-11-21T04:14:24;100710.79;;;-0.53;91.48
79374;BME280;68844;53.128;17.958;2023-11-21T04:16:51;100713.11;;;-0.59;91.60
79374;BME280;68844;53.128;17.958;2023-11-21T04:19:17;100716.17;;;-0.56;91.60
79374;BME280;68844;53.128;17.958;2023-11-21T04:21:44;100720.50;;;-0.57;91.69
79374;BME280;68844;53.128;17.958;2023-11-21T04:24:10;100723.47;;;-0.58;92.07
79374;BME280;68844;53.128;17.958;2023-11-21T04:26:37;100726.45;;;-0.61;91.67
79374;BME280;68844;53.128;17.958;2023-11-21T04:29:04;100727.31;;;-0.60;91.88
79374;BME280;68844;53.128;17.958;2023-11-21T04:31:31;100729.73;;;-0.62;91.51
79374;BME280;68844;53.128;17.958;2023-11-21T04:33:58;100728.93;;;-0.66;91.60
79374;BME280;68844;53.128;17.958;2023-11-21T04:36:25;100728.41;;;-0.65;92.06
79374;BME280;68844;53.128;17.958;2023-11-21T04:38:51;100731.65;;;-0.62;92.09
79374;BME280;68844;53.128;17.958;2023-11-21T04:41:18;100732.76;;;-0.69;91.40
79374;BME280;68844;53.128;17.958;2023-11-21T04:43:44;100728.85;;;-0.74;90.52
79374;BME280;68844;53.128;17.958;2023-11-21T04:46:11;100735.16;;;-0.83;89.94
79374;BME280;68844;53.128;17.958;2023-11-21T04:48:38;100743.27;;;-0.79;90.60
79374;BME280;68844;53.128;17.958;2023-11-21T04:51:05;100750.17;;;-0.79;90.00
79374;BME280;68844;53.128;17.958;2023-11-21T04:53:31;100750.01;;;-0.80;90.22
79374;BME280;68844;53.128;17.958;2023-11-21T04:55:58;100758.99;;;-0.80;90.59
79374;BME280;68844;53.128;17.958;2023-11-21T04:58:25;100765.55;;;-0.78;91.07
79374;BME280;68844;53.128;17.958;2023-11-21T05:00:51;100767.64;;;-0.80;90.83
79374;BME280;68844;53.128;17.958;2023-11-21T05:03:18;100771.58;;;-0.77;90.54
79374;BME280;68844;53.128;17.958;2023-11-21T05:05:45;100773.65;;;-0.76;90.47
79374;BME280;68844;53.128;17.958;2023-11-21T05:08:12;100781.64;;;-0.81;90.59
79374;BME280;68844;53.128;17.958;2023-11-21T05:10:38;100779.77;;;-0.84;90.34
79374;BME280;68844;53.128;17.958;2023-11-21T05:13:05;100783.77;;;-0.85;89.90
79374;BME280;68844;53.128;17.958;2023-11-21T05:15:37;100780.46;;;-0.84;89.65
79374;BME280;68844;53.128;17.958;2023-11-21T05:18:05;100783.12;;;-0.90;89.37
79374;BME280;68844;53.128;17.958;2023-11-21T05:20:32;100783.46;;;-0.90;89.72
79374;BME280;68844;53.128;17.958;2023-11-21T05:22:59;100782.95;;;-0.90;89.65
79374;BME280;68844;53.128;17.958;2023-11-21T05:25:26;100782.44;;;-0.91;90.02
79374;BME280;68844;53.128;17.958;2023-11-21T05:27:53;100783.47;;;-0.90;90.26
79374;BME280;68844;53.128;17.958;2023-11-21T05:30:21;100789.67;;;-0.88;90.14
79374;BME280;68844;53.128;17.958;2023-11-21T05:32:48;100796.92;;;-0.88;90.44
79374;BME280;68844;53.128;17.958;2023-11-21T05:35:16;100801.40;;;-0.86;90.57
79374;BME280;68844;53.128;17.958;2023-11-21T05:37:43;100806.06;;;-0.85;90.38
79374;BME280;68844;53.128;17.958;2023-11-21T05:40:10;100809.00;;;-0.85;90.51
79374;BME280;68844;53.128;17.958;2023-11-21T05:42:38;100811.57;;;-0.83;90.81
79374;BME280;68844;53.128;17.958;2023-11-21T05:45:06;100816.59;;;-0.84;90.63
79374;BME280;68844;53.128;17.958;2023-11-21T05:47:39;100821.79;;;-0.85;90.21
79374;BME280;68844;53.128;17.958;2023-11-21T05:50:10;100821.06;;;-0.82;90.21
79374;BME280;68844;53.128;17.958;2023-11-21T05:52:45;100821.92;;;-0.80;90.51
79374;BME280;68844;53.128;17.958;2023-11-21T05:55:13;100825.53;;;-0.78;90.28
79374;BME280;68844;53.128;17.958;2023-11-21T05:57:41;100828.50;;;-0.83;89.89
79374;BME280;68844;53.128;17.958;2023-11-21T06:00:12;100835.22;;;-0.79;89.85
79374;BME280;68844;53.128;17.958;2023-11-21T06:02:59;100839.91;;;-0.82;89.97
79374;BME280;68844;53.128;17.958;2023-11-21T06:05:26;100845.61;;;-0.81;89.53
79374;BME280;68844;53.128;17.958;2023-11-21T06:07:54;100850.63;;;-0.83;89.99
79374;BME280;68844;53.128;17.958;2023-11-21T06:10:22;100856.50;;;-0.79;89.98
79374;BME280;68844;53.128;17.958;2023-11-21T06:12:50;100852.30;;;-0.75;90.28
79374;BME280;68844;53.128;17.958;2023-11-21T06:15:17;100858.88;;;-0.76;90.19
79374;BME280;68844;53.128;17.958;2023-11-21T06:17:46;100863.22;;;-0.79;90.24
79374;BME280;68844;53.128;17.958;2023-11-21T06:20:16;100870.64;;;-0.77;90.23
79374;BME280;68844;53.128;17.958;2023-11-21T06:22:46;100871.66;;;-0.75;90.20
79374;BME280;68844;53.128;17.958;2023-11-21T06:25:13;100879.52;;;-0.84;90.08
79374;BME280;68844;53.128;17.958;2023-11-21T06:27:43;100885.41;;;-0.85;89.65
79374;BME280;68844;53.128;17.958;2023-11-21T06:30:11;100885.23;;;-0.85;89.31
79374;BME280;68844;53.128;17.958;2023-11-21T06:32:38;100894.20;;;-0.84;89.39
79374;BME280;68844;53.128;17.958;2023-11-21T06:35:08;100896.83;;;-0.87;88.88
79374;BME280;68844;53.128;17.958;2023-11-21T06:37:36;100900.98;;;-0.88;88.68
79374;BME280;68844;53.128;17.958;2023-11-21T06:40:03;100906.86;;;-0.88;88.65
79374;BME280;68844;53.128;17.958;2023-11-21T06:42:31;100911.01;;;-0.87;88.56
79374;BME280;68844;53.128;17.958;2023-11-21T06:44:58;100905.48;;;-0.87;88.22
79374;BME280;68844;53.128;17.958;2023-11-21T06:47:25;100912.23;;;-0.88;87.21
79374;BME280;68844;53.128;17.958;2023-11-21T06:49:52;100909.27;;;-0.86;87.54
79374;BME280;68844;53.128;17.958;2023-11-21T06:52:19;100918.08;;;-0.84;87.26
79374;BME280;68844;53.128;17.958;2023-11-21T06:54:47;100921.89;;;-0.87;87.39
79374;BME280;68844;53.128;17.958;2023-11-21T06:57:16;100924.27;;;-0.82;87.59
79374;BME280;68844;53.128;17.958;2023-11-21T06:59:43;100931.55;;;-0.82;86.91
79374;BME280;68844;53.128;17.958;2023-11-21T07:02:09;100936.41;;;-0.87;86.14
79374;BME280;68844;53.128;17.958;2023-11-21T07:04:36;100937.23;;;-0.79;86.57
79374;BME280;68844;53.128;17.958;2023-11-21T07:07:04;100946.73;;;-0.82;86.67
79374;BME280;68844;53.128;17.958;2023-11-21T07:09:30;100951.73;;;-0.79;87.02
79374;BME280;68844;53.128;17.958;2023-11-21T07:11:57;100946.36;;;-0.77;85.96
79374;BME280;68844;53.128;17.958;2023-11-21T07:14:24;100946.87;;;-0.76;86.22
79374;BME280;68844;53.128;17.958;2023-11-21T07:16:51;100948.94;;;-0.74;86.41
79374;BME280;68844;53.128;17.958;2023-11-21T07:19:19;100956.56;;;-0.76;84.88
79374;BME280;68844;53.128;17.958;2023-11-21T07:21:46;100961.22;;;-0.73;84.89
79374;BME280;68844;53.128;17.958;2023-11-21T07:24:13;100964.13;;;-0.71;84.86
79374;BME280;68844;53.128;17.958;2023-11-21T07:26:39;100962.95;;;-0.74;84.92
79374;BME280;68844;53.128;17.958;2023-11-21T07:29:06;100971.92;;;-0.71;85.14
79374;BME280;68844;53.128;17.958;2023-11-21T07:31:32;100971.02;;;-0.68;84.36
79374;BME280;68844;53.128;17.958;2023-11-21T07:34:02;100974.16;;;-0.70;84.01
79374;BME280;68844;53.128;17.958;2023-11-21T07:36:29;100973.01;;;-0.79;82.99
79374;BME280;68844;53.128;17.958;2023-11-21T07:38:55;100978.00;;;-0.76;83.11
79374;BME280;68844;53.128;17.958;2023-11-21T07:41:22;100982.48;;;-0.76;82.77
79374;BME280;68844;53.128;17.958;2023-11-21T07:43:49;100990.48;;;-0.80;82.26
79374;BME280;68844;53.128;17.958;2023-11-21T07:46:17;100979.19;;;-0.72;82.43
79374;BME280;68844;53.128;17.958;2023-11-21T07:48:44;100976.06;;;-0.71;82.13
79374;BME280;68844;53.128;17.958;2023-11-21T07:51:12;100977.55;;;-0.61;81.94
79374;BME280;68844;53.128;17.958;2023-11-21T07:53:40;100977.85;;;-0.56;82.27
79374;BME280;68844;53.128;17.958;2023-11-21T07:56:07;100977.47;;;-0.52;81.72
79374;BME280;68844;53.128;17.958;2023-11-21T07:58:35;100979.84;;;-0.45;81.71
79374;BME280;68844;53.128;17.958;2023-11-21T08:01:02;100984.48;;;-0.42;81.48
79374;BME280;68844;53.128;17.958;2023-11-21T08:03:30;100984.56;;;-0.32;82.34
79374;BME280;68844;53.128;17.958;2023-11-21T08:05:58;100978.73;;;-0.20;81.34
79374;BME280;68844;53.128;17.958;2023-11-21T08:08:26;100985.67;;;-0.21;80.23
79374;BME280;68844;53.128;17.958;2023-11-21T08:10:54;100988.43;;;-0.20;79.41
79374;BME280;68844;53.128;17.958;2023-11-21T08:13:25;100991.28;;;-0.09;79.49
79374;BME280;68844;53.128;17.958;2023-11-21T08:15:59;100998.86;;;-0.06;78.95
79374;BME280;68844;53.128;17.958;2023-11-21T08:18:34;100995.05;;;-0.06;77.76
79374;BME280;68844;53.128;17.958;2023-11-21T08:21:02;101000.88;;;0.02;78.60
79374;BME280;68844;53.128;17.958;2023-11-21T08:23:29;101002.80;;;-0.01;77.66
79374;BME280;68844;53.128;17.958;2023-11-21T08:25:56;100998.30;;;-0.03;77.27
79374;BME280;68844;53.128;17.958;2023-11-21T08:28:23;100999.63;;;-0.13;77.01
79374;BME280;68844;53.128;17.958;2023-11-21T08:30:52;100999.04;;;-0.06;78.20
79374;BME280;68844;53.128;17.958;2023-11-21T08:33:20;101002.59;;;0.03;78.20
79374;BME280;68844;53.128;17.958;2023-11-21T08:35:47;101001.47;;;0.10;77.78
79374;BME280;68844;53.128;17.958;2023-11-21T08:38:13;101002.98;;;0.15;77.57
79374;BME280;68844;53.128;17.958;2023-11-21T08:40:40;101003.58;;;0.25;77.74
79374;BME280;68844;53.128;17.958;2023-11-21T08:43:07;101006.64;;;0.45;77.59
79374;BME280;68844;53.128;17.958;2023-11-21T08:45:34;101007.37;;;0.70;77.59
79374;BME280;68844;53.128;17.958;2023-11-21T08:48:01;100999.98;;;0.91;76.74
79374;BME280;68844;53.128;17.958;2023-11-21T08:50:28;101005.81;;;1.20;74.87
79374;BME280;68844;53.128;17.958;2023-11-21T08:52:55;101006.15;;;1.32;73.72
79374;BME280;68844;53.128;17.958;2023-11-21T08:55:22;100999.48;;;1.26;72.23
79374;BME280;68844;53.128;17.958;2023-11-21T08:57:49;101002.66;;;1.45;72.22
79374;BME280;68844;53.128;17.958;2023-11-21T09:00:16;101010.91;;;1.50;72.06
79374;BME280;68844;53.128;17.958;2023-11-21T09:02:43;101012.02;;;1.46;71.35
79374;BME280;68844;53.128;17.958;2023-11-21T09:05:12;101016.34;;;1.36;71.31
79374;BME280;68844;53.128;17.958;2023-11-21T09:07:41;101022.85;;;1.29;71.34
79374;BME280;68844;53.128;17.958;2023-11-21T09:10:08;101024.55;;;1.32;71.38
79374;BME280;68844;53.128;17.958;2023-11-21T09:12:36;101022.27;;;1.34;71.22
79374;BME280;68844;53.128;17.958;2023-11-21T09:15:07;101029.93;;;1.20;71.25
79374;BME280;68844;53.128;17.958;2023-11-21T09:17:36;101030.83;;;1.06;71.70
79374;BME280;68844;53.128;17.958;2023-11-21T09:20:03;101031.56;;;1.14;71.81
79374;BME280;68844;53.128;17.958;2023-11-21T09:22:32;101032.75;;;1.29;72.20
79374;BME280;68844;53.128;17.958;2023-11-21T09:24:59;101037.16;;;1.36;71.50
79374;BME280;68844;53.128;17.958;2023-11-21T09:27:25;101038.48;;;1.40;71.07
79374;BME280;68844;53.128;17.958;2023-11-21T09:29:52;101040.83;;;1.33;71.74
79374;BME280;68844;53.128;17.958;2023-11-21T09:32:20;101045.98;;;1.25;71.45
79374;BME280;68844;53.128;17.958;2023-11-21T09:34:51;101041.17;;;1.34;71.36
79374;BME280;68844;53.128;17.958;2023-11-21T09:37:17;101052.06;;;1.26;70.57
79374;BME280;68844;53.128;17.958;2023-11-21T09:39:46;101056.38;;;1.15;70.49
79374;BME280;68844;53.128;17.958;2023-11-21T09:42:23;101058.96;;;1.15;71.57
79374;BME280;68844;53.128;17.958;2023-11-21T09:47:49;101062.50;;;0.84;71.89
79374;BME280;68844;53.128;17.958;2023-11-21T09:50:20;101057.33;;;0.95;71.76
79374;BME280;68844;53.128;17.958;2023-11-21T09:53:06;101064.66;;;0.91;71.34
79374;BME280;68844;53.128;17.958;2023-11-21T09:55:43;101060.91;;;0.86;71.78
79374;BME280;68844;53.128;17.958;2023-11-21T09:58:11;101067.14;;;0.72;71.21
79374;BME280;68844;53.128;17.958;2023-11-21T10:00:42;101066.65;;;0.68;71.68
79374;BME280;68844;53.128;17.958;2023-11-21T10:03:10;101066.52;;;0.65;71.63
79374;BME280;68844;53.128;17.958;2023-11-21T10:05:39;101064.16;;;0.75;72.15
79374;BME280;68844;53.128;17.958;2023-11-21T10:08:08;101066.58;;;0.75;71.55
79374;BME280;68844;53.128;17.958;2023-11-21T10:10:37;101069.77;;;0.69;71.63
79374;BME280;68844;53.128;17.958;2023-11-21T10:13:06;101063.92;;;0.65;72.77
79374;BME280;68844;53.128;17.958;2023-11-21T10:15:34;101065.40;;;0.72;71.83
79374;BME280;68844;53.128;17.958;2023-11-21T10:18:05;101070.59;;;0.58;72.04
79374;BME280;68844;53.128;17.958;2023-11-21T10:20:33;101073.77;;;0.53;72.71
79374;BME280;68844;53.128;17.958;2023-11-21T10:23:00;101073.29;;;0.49;73.03
79374;BME280;68844;53.128;17.958;2023-11-21T10:25:30;101077.25;;;0.52;73.71
79374;BME280;68844;53.128;17.958;2023-11-21T10:27:59;101081.55;;;0.37;73.57
79374;BME280;68844;53.128;17.958;2023-11-21T10:30:35;101084.61;;;0.42;74.31
79374;BME280;68844;53.128;17.958;2023-11-21T10:33:06;101089.98;;;0.43;73.91
79374;BME280;68844;53.128;17.958;2023-11-21T10:38:08;101086.66;;;0.45;73.36
79374;BME280;68844;53.128;17.958;2023-11-21T10:40:43;101097.91;;;0.47;73.24
79374;BME280;68844;53.128;17.958;2023-11-21T10:43:13;101096.83;;;0.34;73.58
79374;BME280;68844;53.128;17.958;2023-11-21T10:45:42;101098.27;;;0.29;73.54
79374;BME280;68844;53.128;17.958;2023-11-21T10:48:10;101104.09;;;0.36;73.79
79374;BME280;68844;53.128;17.958;2023-11-21T10:50:39;101103.90;;;0.37;73.33
79374;BME280;68844;53.128;17.958;2023-11-21T10:53:07;101102.84;;;0.39;73.18
79374;BME280;68844;53.128;17.958;2023-11-21T10:55:34;101105.60;;;0.41;73.86
79374;BME280;68844;53.128;17.958;2023-11-21T10:58:03;101104.61;;;0.53;73.39
79374;BME280;68844;53.128;17.958;2023-11-21T11:00:34;101100.97;;;0.68;72.98
79374;BME280;68844;53.128;17.958;2023-11-21T11:03:02;101102.39;;;0.65;73.44
79374;BME280;68844;53.128;17.958;2023-11-21T11:05:29;101105.09;;;0.72;72.35
79374;BME280;68844;53.128;17.958;2023-11-21T11:08:04;101107.11;;;0.62;71.85
79374;BME280;68844;53.128;17.958;2023-11-21T11:10:31;101106.97;;;0.59;71.67
79374;BME280;68844;53.128;17.958;2023-11-21T11:12:58;101103.26;;;0.66;71.56
79374;BME280;68844;53.128;17.958;2023-11-21T11:15:26;101108.52;;;0.61;71.24
79374;BME280;68844;53.128;17.958;2023-11-21T11:17:54;101119.92;;;0.46;71.47
79374;BME280;68844;53.128;17.958;2023-11-21T11:20:29;101118.15;;;0.50;72.38
79374;BME280;68844;53.128;17.958;2023-11-21T11:26:07;101127.77;;;0.59;71.86
79374;BME280;68844;53.128;17.958;2023-11-21T11:29:02;101132.96;;;0.58;72.45
79374;BME280;68844;53.128;17.958;2023-11-21T11:31:38;101133.60;;;0.64;72.55
79374;BME280;68844;53.128;17.958;2023-11-21T11:34:32;101137.72;;;0.68;72.65
79374;BME280;68844;53.128;17.958;2023-11-21T11:37:06;101143.55;;;0.58;71.77
79374;BME280;68844;53.128;17.958;2023-11-21T11:39:39;101157.09;;;0.53;72.57
79374;BME280;68844;53.128;17.958;2023-11-21T11:42:15;101163.00;;;0.53;72.90
79374;BME280;68844;53.128;17.958;2023-11-21T11:47:16;101173.16;;;0.40;71.87
79374;BME280;68844;53.128;17.958;2023-11-21T11:50:11;101175.42;;;0.38;72.39
79374;BME280;68844;53.128;17.958;2023-11-21T11:52:52;101178.35;;;0.41;71.86
79374;BME280;68844;53.128;17.958;2023-11-21T11:55:23;101178.67;;;0.43;72.36
79374;BME280;68844;53.128;17.958;2023-11-21T11:57:53;101181.39;;;0.50;72.65
79374;BME280;68844;53.128;17.958;2023-11-21T12:03:00;101176.63;;;0.40;72.46
79374;BME280;68844;53.128;17.958;2023-11-21T12:05:32;101175.68;;;0.50;72.49
79374;BME280;68844;53.128;17.958;2023-11-21T12:08:06;101181.27;;;0.43;71.47
79374;BME280;68844;53.128;17.958;2023-11-21T12:10:34;101178.16;;;0.43;72.57
79374;BME280;68844;53.128;17.958;2023-11-21T12:13:04;101179.73;;;0.42;72.63
79374;BME280;68844;53.128;17.958;2023-11-21T12:15:34;101184.07;;;0.40;73.04
79374;BME280;68844;53.128;17.958;2023-11-21T12:18:02;101185.45;;;0.41;73.07
79374;BME280;68844;53.128;17.958;2023-11-21T12:20:30;101185.44;;;0.42;72.15
79374;BME280;68844;53.128;17.958;2023-11-21T12:22:59;101189.83;;;0.36;72.43
79374;BME280;68844;53.128;17.958;2023-11-21T12:25:27;101188.27;;;0.35;72.45
79374;BME280;68844;53.128;17.958;2023-11-21T12:27:59;101184.08;;;0.18;72.68
79374;BME280;68844;53.128;17.958;2023-11-21T12:30:28;101181.14;;;0.17;73.13
79374;BME280;68844;53.128;17.958;2023-11-21T12:32:58;101183.21;;;0.18;73.03
79374;BME280;68844;53.128;17.958;2023-11-21T12:35:30;101184.39;;;0.24;73.25
79374;BME280;68844;53.128;17.958;2023-11-21T12:37:57;101182.65;;;0.23;73.52
79374;BME280;68844;53.128;17.958;2023-11-21T12:40:24;101185.20;;;0.28;73.71
79374;BME280;68844;53.128;17.958;2023-11-21T12:42:56;101189.59;;;0.21;73.00
79374;BME280;68844;53.128;17.958;2023-11-21T12:45:24;101193.17;;;0.30;73.71
79374;BME280;68844;53.128;17.958;2023-11-21T12:48:01;101190.80;;;0.21;72.82
79374;BME280;68844;53.128;17.958;2023-11-21T12:50:34;101198.00;;;0.31;72.74
79374;BME280;68844;53.128;17.958;2023-11-21T12:53:05;101210.48;;;0.31;72.95
79374;BME280;68844;53.128;17.958;2023-11-21T12:55:33;101214.25;;;0.36;73.27
79374;BME280;68844;53.128;17.958;2023-11-21T12:58:05;101218.37;;;0.39;73.29
79374;BME280;68844;53.128;17.958;2023-11-21T13:00:47;101219.44;;;0.36;73.31
79374;BME280;68844;53.128;17.958;2023-11-21T13:03:15;101220.45;;;0.40;72.71
79374;BME280;68844;53.128;17.958;2023-11-21T13:05:46;101228.98;;;0.36;72.92